Time;durP1;ratioP1;P1;durP2;ratioP2;P2;SDS_P1;SDS_P2;PMS_P1;PMS_P2;Temp;Humidity;BMP_temperature;BMP_pressure;BME280_temperature;BME280_humidity;BME280_pressure;Samples;Min_cycle;Max_cycle;Signal;HPM_P1;HPM_P2
2021/11/09 00:00:43;;;;;;;4.00;1.42;;;;;;;;;;4853815;29;20336;-75
2021/11/09 00:03:10;;;;;;;3.85;1.52;;;;;;;;;;4852925;29;20055;-75
2021/11/09 00:05:52;;;;;;;1.95;1.23;;;;;;;;;;4837712;29;20390;-76
2021/11/09 00:08:20;;;;;;;3.97;1.60;;;;;;;;;;4853786;29;20109;-75
2021/11/09 00:10:46;;;;;;;1.85;1.15;;;;;;;;;;4837506;29;20040;-75
2021/11/09 00:13:12;;;;;;;2.80;1.50;;;;;;;;;;4853231;29;20022;-75
2021/11/09 00:15:38;;;;;;;1.92;1.00;;;;;;;;;;4853598;29;20094;-76
2021/11/09 00:18:05;;;;;;;3.38;1.30;;;;;;;;;;4835972;29;20082;-77
2021/11/09 00:20:33;;;;;;;3.67;1.10;;;;;;;;;;4837200;29;20030;-76
2021/11/09 00:23:01;;;;;;;2.53;1.17;;;;;;;;;;4853439;29;20022;-75
2021/11/09 00:25:27;;;;;;;2.08;1.08;;;;;;;;;;4837256;29;20097;-75
2021/11/09 00:27:52;;;;;;;2.17;1.20;;;;;;;;;;4853383;29;20026;-75
2021/11/09 00:30:20;;;;;;;3.83;1.25;;;;;;;;;;4836753;29;20046;-75
2021/11/09 00:32:46;;;;;;;2.95;1.15;;;;;;;;;;4836713;29;20022;-76
2021/11/09 00:35:14;;;;;;;3.15;1.10;;;;;;;;;;4853283;29;20033;-75
2021/11/09 00:37:40;;;;;;;1.55;1.00;;;;;;;;;;4836153;29;20089;-75
2021/11/09 00:40:07;;;;;;;2.92;1.17;;;;;;;;;;4853225;29;20030;-76
2021/11/09 00:42:33;;;;;;;2.20;1.23;;;;;;;;;;4836677;29;20030;-75
2021/11/09 00:44:58;;;;;;;2.20;1.15;;;;;;;;;;4852676;29;20026;-76
2021/11/09 00:47:24;;;;;;;2.90;1.33;;;;;;;;;;4836511;29;20032;-76
2021/11/09 00:49:50;;;;;;;1.33;0.90;;;;;;;;;;4852823;29;20059;-77
2021/11/09 00:52:15;;;;;;;3.28;1.27;;;;;;;;;;4852701;29;20022;-76
2021/11/09 00:54:41;;;;;;;2.42;1.30;;;;;;;;;;4853110;29;20041;-76
2021/11/09 00:57:07;;;;;;;3.80;1.25;;;;;;;;;;4853059;29;20158;-76
2021/11/09 00:59:32;;;;;;;1.98;1.10;;;;;;;;;;4836306;29;20064;-76
2021/11/09 01:01:58;;;;;;;2.58;1.20;;;;;;;;;;4852395;29;20077;-76
2021/11/09 01:04:24;;;;;;;3.92;1.15;;;;;;;;;;4852818;29;20124;-76
2021/11/09 01:06:51;;;;;;;1.73;1.00;;;;;;;;;;4852457;29;20025;-77
2021/11/09 01:09:16;;;;;;;2.90;1.13;;;;;;;;;;4852612;29;20093;-76
2021/11/09 01:11:42;;;;;;;3.75;0.98;;;;;;;;;;4852414;29;20116;-76
2021/11/09 01:14:08;;;;;;;2.05;1.15;;;;;;;;;;4852668;29;20398;-76
2021/11/09 01:16:35;;;;;;;2.30;1.23;;;;;;;;;;4852607;29;20087;-76
2021/11/09 01:19:04;;;;;;;3.22;1.30;;;;;;;;;;4836256;29;20034;-77
2021/11/09 01:21:31;;;;;;;2.50;1.50;;;;;;;;;;4835887;29;20423;-78
2021/11/09 01:23:57;;;;;;;1.90;1.27;;;;;;;;;;4836214;29;20030;-76
2021/11/09 01:26:23;;;;;;;3.30;1.42;;;;;;;;;;4852367;29;20033;-76
2021/11/09 01:28:54;;;;;;;3.38;1.60;;;;;;;;;;4835714;29;20078;-75
2021/11/09 01:31:20;;;;;;;2.25;1.33;;;;;;;;;;4852255;29;20057;-76
2021/11/09 01:33:47;;;;;;;4.60;2.30;;;;;;;;;;4852195;29;20026;-76
2021/11/09 01:36:12;;;;;;;3.45;1.50;;;;;;;;;;4852431;29;20063;-76
2021/11/09 01:38:39;;;;;;;2.42;1.25;;;;;;;;;;4852113;29;20029;-76
2021/11/09 01:41:08;;;;;;;2.95;1.20;;;;;;;;;;4852349;29;20030;-76
2021/11/09 01:43:35;;;;;;;2.13;1.20;;;;;;;;;;4835824;29;20030;-76
2021/11/09 01:46:01;;;;;;;2.47;1.25;;;;;;;;;;4835761;29;20034;-76
2021/11/09 01:48:26;;;;;;;3.20;1.50;;;;;;;;;;4852198;29;20034;-75
2021/11/09 01:50:56;;;;;;;3.17;1.15;;;;;;;;;;4852661;29;20080;-76
2021/11/09 01:53:22;;;;;;;3.20;1.52;;;;;;;;;;4852411;29;20037;-76
2021/11/09 01:55:48;;;;;;;2.28;1.30;;;;;;;;;;4852271;29;20392;-76
2021/11/09 01:58:14;;;;;;;2.30;1.45;;;;;;;;;;4851450;29;20038;-76
2021/11/09 02:00:53;;;;;;;3.90;1.60;;;;;;;;;;4852346;29;20033;-75
2021/11/09 02:03:19;;;;;;;2.50;1.48;;;;;;;;;;4852314;29;20058;-76
2021/11/09 02:05:44;;;;;;;4.10;1.45;;;;;;;;;;4852168;29;20494;-76
2021/11/09 02:08:10;;;;;;;1.95;1.15;;;;;;;;;;4852092;29;20026;-76
2021/11/09 02:10:40;;;;;;;4.07;1.42;;;;;;;;;;4852075;29;20030;-76
2021/11/09 02:13:06;;;;;;;2.25;1.20;;;;;;;;;;4852161;29;20026;-75
2021/11/09 02:15:34;;;;;;;2.00;1.10;;;;;;;;;;4835752;29;20096;-76
2021/11/09 02:18:00;;;;;;;2.25;1.40;;;;;;;;;;4851991;29;20030;-76
2021/11/09 02:20:27;;;;;;;3.17;1.38;;;;;;;;;;4851902;29;20047;-76
2021/11/09 02:22:53;;;;;;;2.30;1.40;;;;;;;;;;4851736;29;20070;-75
2021/11/09 02:25:21;;;;;;;2.58;1.52;;;;;;;;;;4851901;29;20078;-76
2021/11/09 02:27:47;;;;;;;3.63;2.08;;;;;;;;;;4851566;29;20109;-76
2021/11/09 02:30:15;;;;;;;2.80;1.70;;;;;;;;;;4852037;29;20494;-75
2021/11/09 02:32:41;;;;;;;3.05;1.40;;;;;;;;;;4851679;29;20127;-76
2021/11/09 02:35:08;;;;;;;2.53;1.30;;;;;;;;;;4851955;29;20021;-76
2021/11/09 02:37:34;;;;;;;2.30;1.20;;;;;;;;;;4834866;29;20022;-76
2021/11/09 02:39:59;;;;;;;3.53;1.15;;;;;;;;;;4851673;29;20050;-75
2021/11/09 02:42:32;;;;;;;2.00;1.20;;;;;;;;;;4854493;29;20038;-75
2021/11/09 02:45:04;;;;;;;3.00;1.23;;;;;;;;;;4855409;29;20058;-75
2021/11/09 02:47:32;;;;;;;1.98;1.13;;;;;;;;;;4855295;29;20507;-76
2021/11/09 02:50:06;;;;;;;2.33;1.13;;;;;;;;;;4855209;29;20030;-75
2021/11/09 02:52:33;;;;;;;2.63;1.30;;;;;;;;;;4838122;29;20333;-76
2021/11/09 02:55:06;;;;;;;2.08;1.13;;;;;;;;;;4855041;29;20034;-75
2021/11/09 02:57:54;;;;;;;2.38;1.00;;;;;;;;;;4838220;29;20532;-76
2021/11/09 03:00:29;;;;;;;1.33;0.90;;;;;;;;;;4855142;29;20022;-76
2021/11/09 03:03:01;;;;;;;1.95;1.10;;;;;;;;;;4854876;29;20037;-76
2021/11/09 03:05:40;;;;;;;1.65;1.00;;;;;;;;;;4838319;29;20117;-76
2021/11/09 03:10:52;;;;;;;2.42;1.10;;;;;;;;;;4855104;29;20033;-75
2021/11/09 03:13:17;;;;;;;2.00;1.10;;;;;;;;;;4838046;29;20121;-77
2021/11/09 03:15:43;;;;;;;3.50;1.05;;;;;;;;;;4854763;29;20050;-76
2021/11/09 03:18:13;;;;;;;1.98;1.10;;;;;;;;;;4837664;29;20057;-76
2021/11/09 03:39:58;;;;;;;1.52;1.20;;;;;;;;;;4854554;29;20034;-76
2021/11/09 03:40:51;;;;;;;1.83;0.65;;;;;;;;;;4854289;29;20029;-74
2021/11/09 03:45:30;;;;;;;2.05;0.93;;;;;;;;;;4854429;29;20041;-74
2021/11/09 03:48:04;;;;;;;4.45;1.08;;;;;;;;;;4837115;29;20131;-75
2021/11/09 03:50:31;;;;;;;2.40;0.95;;;;;;;;;;4854390;29;20085;-75
2021/11/09 03:53:03;;;;;;;2.60;1.00;;;;;;;;;;4837596;29;20063;-75
2021/11/09 03:55:41;;;;;;;1.55;0.93;;;;;;;;;;4853976;29;20033;-75
2021/11/09 04:03:46;;;;;;;1.65;0.82;;;;;;;;;;4854070;29;20026;-74
2021/11/09 04:25:05;;;;;;;;;;;;;;;;;;4854201;29;20496;-74
2021/11/09 04:28:08;;;;;;;1.30;0.80;;;;;;;;;;4837018;29;19988;-75
2021/11/09 05:10:40;;;;;;;3.00;1.20;;;;;;;;;;4830837;29;20042;-75
2021/11/09 05:13:06;;;;;;;2.35;1.30;;;;;;;;;;4852342;29;20036;-75
2021/11/09 05:15:31;;;;;;;1.63;1.20;;;;;;;;;;4836102;29;20037;-75
2021/11/09 05:17:57;;;;;;;2.42;1.20;;;;;;;;;;4852389;29;20467;-74
2021/11/09 05:20:24;;;;;;;4.25;1.20;;;;;;;;;;4852887;29;20055;-74
2021/11/09 05:22:49;;;;;;;4.32;1.48;;;;;;;;;;4852358;29;20694;-75
2021/11/09 05:25:15;;;;;;;2.30;1.20;;;;;;;;;;4836190;29;20021;-74
2021/11/09 05:27:41;;;;;;;2.30;1.20;;;;;;;;;;4852547;29;20074;-74
2021/11/09 05:30:06;;;;;;;2.08;1.27;;;;;;;;;;4835770;29;20042;-75
2021/11/09 05:32:32;;;;;;;3.88;1.13;;;;;;;;;;4852482;29;20030;-75
2021/11/09 05:34:57;;;;;;;2.70;1.63;;;;;;;;;;4836041;29;20057;-75
2021/11/09 05:37:28;;;;;;;2.20;1.20;;;;;;;;;;4852127;29;20229;-75
2021/11/09 05:39:55;;;;;;;2.78;1.42;;;;;;;;;;4835570;29;20026;-75
2021/11/09 05:42:21;;;;;;;3.80;1.58;;;;;;;;;;4851993;29;20423;-75
2021/11/09 05:44:47;;;;;;;3.97;1.30;;;;;;;;;;4852209;29;20022;-75
2021/11/09 05:47:13;;;;;;;2.80;1.33;;;;;;;;;;4851785;29;20089;-76
2021/11/09 05:49:40;;;;;;;3.20;1.40;;;;;;;;;;4836276;29;20106;-75
2021/11/09 05:52:07;;;;;;;3.10;1.38;;;;;;;;;;4835678;29;20077;-75
2021/11/09 05:54:32;;;;;;;2.38;1.30;;;;;;;;;;4852251;29;20033;-74
2021/11/09 05:56:58;;;;;;;3.17;1.65;;;;;;;;;;4851798;29;20045;-76
2021/11/09 05:59:23;;;;;;;3.72;1.67;;;;;;;;;;4852202;29;20018;-76
2021/11/09 06:01:48;;;;;;;5.65;1.67;;;;;;;;;;4852136;29;20041;-75
2021/11/09 06:04:15;;;;;;;8.80;1.90;;;;;;;;;;4851339;29;20026;-75
2021/11/09 06:06:41;;;;;;;3.15;1.52;;;;;;;;;;4850353;29;20030;-76
2021/11/09 06:09:06;;;;;;;2.78;1.63;;;;;;;;;;4851893;29;20033;-75
2021/11/09 06:11:31;;;;;;;3.20;1.80;;;;;;;;;;4851946;29;20026;-75
2021/11/09 06:13:57;;;;;;;3.58;2.00;;;;;;;;;;4851921;29;20345;-75
2021/11/09 06:16:22;;;;;;;3.67;1.73;;;;;;;;;;4853022;29;20034;-76
2021/11/09 06:18:51;;;;;;;3.70;1.73;;;;;;;;;;4855687;29;20049;-76
2021/11/09 06:21:16;;;;;;;4.30;1.85;;;;;;;;;;4855595;29;20093;-76
2021/11/09 06:23:42;;;;;;;3.67;1.70;;;;;;;;;;4855543;29;20067;-76
2021/11/09 06:26:07;;;;;;;3.67;1.73;;;;;;;;;;4855411;29;20357;-75
2021/11/09 06:28:33;;;;;;;2.90;1.65;;;;;;;;;;4854066;29;20033;-77
2021/11/09 06:30:59;;;;;;;3.65;1.77;;;;;;;;;;4852206;29;20058;-76
2021/11/09 06:33:24;;;;;;;4.18;1.95;;;;;;;;;;4853158;29;20066;-76
2021/11/09 06:35:51;;;;;;;6.78;1.50;;;;;;;;;;4837436;29;20054;-76
2021/11/09 06:38:18;;;;;;;7.53;1.90;;;;;;;;;;4838398;29;20026;-75
2021/11/09 06:40:43;;;;;;;3.25;1.60;;;;;;;;;;4854788;29;20061;-75
2021/11/09 06:43:09;;;;;;;4.03;1.70;;;;;;;;;;4854897;29;20033;-75
2021/11/09 06:45:35;;;;;;;2.30;1.60;;;;;;;;;;4855094;29;20041;-76
2021/11/09 06:48:02;;;;;;;3.97;1.35;;;;;;;;;;4838152;29;20025;-77
2021/11/09 06:50:27;;;;;;;2.53;1.40;;;;;;;;;;4854861;29;20030;-77
2021/11/09 06:52:52;;;;;;;3.95;1.42;;;;;;;;;;4837808;29;20078;-77
2021/11/09 06:55:18;;;;;;;2.42;1.52;;;;;;;;;;4854559;29;20022;-76
2021/11/09 06:57:44;;;;;;;2.78;1.15;;;;;;;;;;4838176;29;20037;-76
2021/11/09 07:00:13;;;;;;;2.72;1.25;;;;;;;;;;4854525;29;20030;-77
2021/11/09 07:02:39;;;;;;;3.33;1.50;;;;;;;;;;4853961;29;20056;-78
2021/11/09 07:05:06;;;;;;;2.80;1.00;;;;;;;;;;4855148;29;20034;-77
2021/11/09 07:07:31;;;;;;;2.22;1.20;;;;;;;;;;4854757;29;20041;-77
2021/11/09 07:09:57;;;;;;;5.13;1.00;;;;;;;;;;4854497;29;20029;-77
2021/11/09 07:12:22;;;;;;;2.42;0.95;;;;;;;;;;4854179;29;20029;-78
2021/11/09 07:14:50;;;;;;;2.67;1.10;;;;;;;;;;4854439;29;20041;-77
2021/11/09 07:17:16;;;;;;;2.13;1.27;;;;;;;;;;4854302;29;20058;-77
2021/11/09 07:19:47;;;;;;;1.60;1.05;;;;;;;;;;4854411;29;20073;-77
2021/11/09 07:22:12;;;;;;;1.30;0.90;;;;;;;;;;4854174;29;20022;-77
2021/11/09 07:24:38;;;;;;;2.42;1.17;;;;;;;;;;4837877;29;20025;-79
2021/11/09 07:27:03;;;;;;;2.22;1.10;;;;;;;;;;4853835;29;20025;-77
2021/11/09 07:29:29;;;;;;;1.55;1.00;;;;;;;;;;4837466;29;20446;-77
2021/11/09 07:31:56;;;;;;;2.10;1.10;;;;;;;;;;4853897;29;20046;-78
2021/11/09 07:34:21;;;;;;;2.78;1.30;;;;;;;;;;4853960;29;20240;-78
2021/11/09 07:36:47;;;;;;;1.77;1.00;;;;;;;;;;4853926;29;20501;-79
2021/11/09 07:39:12;;;;;;;2.50;1.08;;;;;;;;;;4837165;29;20045;-77
2021/11/09 07:41:40;;;;;;;1.98;1.25;;;;;;;;;;4853826;29;20089;-78
2021/11/09 07:44:08;;;;;;;2.25;1.00;;;;;;;;;;4837336;29;20415;-79
2021/11/09 07:46:34;;;;;;;2.63;1.08;;;;;;;;;;4853781;29;20034;-78
2021/11/09 07:49:00;;;;;;;1.85;0.88;;;;;;;;;;4853488;29;20058;-78
2021/11/09 07:51:27;;;;;;;2.33;1.10;;;;;;;;;;4853862;29;20037;-79
2021/11/09 07:53:54;;;;;;;3.40;1.13;;;;;;;;;;4837459;29;20120;-78
2021/11/09 07:56:24;;;;;;;2.03;1.10;;;;;;;;;;4853602;29;20026;-78
2021/11/09 08:01:22;;;;;;;1.52;1.00;;;;;;;;;;4853697;29;20066;-78
2021/11/09 08:04:12;;;;;;;2.10;0.90;;;;;;;;;;4853888;29;20058;-78
2021/11/09 08:09:32;;;;;;;2.08;1.10;;;;;;;;;;4853644;29;20034;-78
2021/11/09 08:12:00;;;;;;;0.80;0.70;;;;;;;;;;4852770;29;20097;-78
2021/11/09 08:14:26;;;;;;;3.60;1.10;;;;;;;;;;4853530;29;20050;-78
2021/11/09 08:16:52;;;;;;;2.53;1.20;;;;;;;;;;4836679;29;20030;-78
2021/11/09 08:19:18;;;;;;;1.60;0.90;;;;;;;;;;4853068;29;20158;-79
2021/11/09 08:21:46;;;;;;;3.25;1.48;;;;;;;;;;4853135;29;20029;-78
2021/11/09 08:24:15;;;;;;;3.13;1.00;;;;;;;;;;4837206;29;20060;-78
2021/11/09 08:26:40;;;;;;;1.77;1.05;;;;;;;;;;4853380;29;20037;-78
2021/11/09 08:29:06;;;;;;;2.50;1.15;;;;;;;;;;4836780;29;20212;-80
2021/11/09 08:31:37;;;;;;;2.90;1.30;;;;;;;;;;4852767;29;20056;-77
2021/11/09 08:34:04;;;;;;;3.90;1.08;;;;;;;;;;4853132;29;20025;-78
2021/11/09 08:36:31;;;;;;;3.58;1.17;;;;;;;;;;4836463;29;20379;-78
2021/11/09 08:38:59;;;;;;;2.60;1.20;;;;;;;;;;4852363;29;20042;-78
2021/11/09 08:41:31;;;;;;;1.95;1.17;;;;;;;;;;4853097;29;20071;-77
2021/11/09 08:44:06;;;;;;;1.80;1.00;;;;;;;;;;4852870;29;20464;-78
2021/11/09 08:46:40;;;;;;;2.00;1.20;;;;;;;;;;4853102;29;20340;-78
2021/11/09 08:49:07;;;;;;;2.15;1.13;;;;;;;;;;4836519;29;20247;-77
2021/11/09 08:51:34;;;;;;;2.95;1.25;;;;;;;;;;4852673;29;20034;-78
2021/11/09 08:54:16;;;;;;;2.40;1.10;;;;;;;;;;4836129;29;20097;-78
2021/11/09 08:57:04;;;;;;;4.38;1.23;;;;;;;;;;4835953;29;20344;-78
2021/11/09 09:04:59;;;;;;;2.03;1.20;;;;;;;;;;4852790;29;20045;-77
2021/11/09 09:07:26;;;;;;;2.03;1.27;;;;;;;;;;4852830;29;20037;-78
2021/11/09 09:09:52;;;;;;;2.15;1.30;;;;;;;;;;4852763;29;20062;-79
2021/11/09 09:12:17;;;;;;;3.83;1.25;;;;;;;;;;4852364;29;20030;-78
2021/11/09 09:14:43;;;;;;;1.92;1.10;;;;;;;;;;4852550;29;20091;-77
2021/11/09 09:17:09;;;;;;;1.25;0.90;;;;;;;;;;4852510;29;20053;-77
2021/11/09 09:19:41;;;;;;;1.98;1.30;;;;;;;;;;4835848;29;20448;-77
2021/11/09 09:22:10;;;;;;;1.27;0.93;;;;;;;;;;4835957;29;20333;-78
2021/11/09 09:24:51;;;;;;;2.22;1.00;;;;;;;;;;4852139;29;20034;-77
2021/11/09 09:29:56;;;;;;;2.55;1.35;;;;;;;;;;4851992;29;20040;-79
2021/11/09 09:56:57;;;;;;;3.00;0.90;;;;;;;;;;4855354;29;20121;-76
2021/11/09 09:59:30;;;;;;;1.00;0.90;;;;;;;;;;4855420;29;20047;-76
2021/11/09 10:02:13;;;;;;;2.97;0.80;;;;;;;;;;4855018;29;20036;-74
2021/11/09 10:05:02;;;;;;;1.20;0.80;;;;;;;;;;4855451;29;20030;-78
2021/11/09 10:07:33;;;;;;;1.60;0.90;;;;;;;;;;4854676;29;20038;-77
2021/11/09 10:10:24;;;;;;;2.08;0.80;;;;;;;;;;4855617;29;20057;-78
2021/11/09 10:13:03;;;;;;;2.15;0.82;;;;;;;;;;4847301;29;20038;-77
2021/11/09 10:15:32;;;;;;;2.15;0.70;;;;;;;;;;4855438;29;20058;-75
2021/11/09 10:18:03;;;;;;;1.27;0.63;;;;;;;;;;4855543;29;20030;-76
2021/11/09 10:20:40;;;;;;;1.10;0.70;;;;;;;;;;4838643;29;20026;-77
2021/11/09 10:23:11;;;;;;;0.90;0.80;;;;;;;;;;4838409;29;20105;-77
2021/11/09 10:25:36;;;;;;;1.30;0.68;;;;;;;;;;4838249;29;20599;-78
2021/11/09 10:28:10;;;;;;;3.47;0.70;;;;;;;;;;4838095;29;20078;-78
2021/11/09 10:30:39;;;;;;;0.70;0.70;;;;;;;;;;4854898;29;20427;-79
2021/11/09 10:33:05;;;;;;;1.25;0.90;;;;;;;;;;4838568;29;20029;-78
2021/11/09 10:35:32;;;;;;;3.15;1.08;;;;;;;;;;4837723;29;20029;-79
2021/11/09 10:38:02;;;;;;;2.40;0.80;;;;;;;;;;4854891;29;20034;-78
2021/11/09 10:40:32;;;;;;;3.80;0.90;;;;;;;;;;4854958;29;20121;-79
2021/11/09 10:43:01;;;;;;;1.27;0.80;;;;;;;;;;4855067;29;20026;-77
2021/11/09 10:45:29;;;;;;;2.05;0.95;;;;;;;;;;4855071;29;20498;-78
2021/11/09 10:48:01;;;;;;;1.42;0.77;;;;;;;;;;4854691;29;20045;-78
2021/11/09 10:50:34;;;;;;;1.15;0.80;;;;;;;;;;4855171;29;20038;-78
2021/11/09 11:03:58;;;;;;;0.93;0.55;;;;;;;;;;4853980;29;20106;-79
2021/11/09 11:06:31;;;;;;;1.20;0.80;;;;;;;;;;4852935;29;20325;-78
2021/11/09 11:09:18;;;;;;;3.45;0.70;;;;;;;;;;4853681;29;20624;-78
2021/11/09 11:11:44;;;;;;;1.48;0.35;;;;;;;;;;4853189;29;20045;-76
2021/11/09 11:14:29;;;;;;;1.60;0.70;;;;;;;;;;4854584;29;20030;-77
2021/11/09 11:17:04;;;;;;;0.95;0.50;;;;;;;;;;4854299;29;20540;-76
2021/11/09 11:19:36;;;;;;;0.68;0.50;;;;;;;;;;4837853;29;20102;-77
2021/11/09 11:22:05;;;;;;;1.73;0.47;;;;;;;;;;4854122;29;20037;-78
2021/11/09 11:24:31;;;;;;;0.70;0.70;;;;;;;;;;4854375;29;20033;-78
2021/11/09 11:26:58;;;;;;;2.03;0.85;;;;;;;;;;4854217;29;20093;-78
2021/11/09 11:29:26;;;;;;;3.10;0.90;;;;;;;;;;4854275;29;20093;-78
2021/11/09 11:31:54;;;;;;;3.38;1.13;;;;;;;;;;4853908;29;20570;-77
2021/11/09 11:34:21;;;;;;;2.33;0.80;;;;;;;;;;4854260;29;20608;-77
2021/11/09 11:36:49;;;;;;;2.60;0.82;;;;;;;;;;4837184;29;20399;-80
2021/11/09 11:39:15;;;;;;;1.75;0.75;;;;;;;;;;4854207;29;20034;-79
2021/11/09 11:41:44;;;;;;;3.10;0.73;;;;;;;;;;4853997;29;20037;-78
2021/11/09 11:44:13;;;;;;;1.30;0.60;;;;;;;;;;4854023;29;20030;-78
2021/11/09 11:46:39;;;;;;;1.95;0.70;;;;;;;;;;4837595;29;20065;-78
2021/11/09 11:49:16;;;;;;;2.35;0.85;;;;;;;;;;4854256;29;20038;-77
2021/11/09 11:51:45;;;;;;;1.88;0.90;;;;;;;;;;4837504;29;20106;-78
2021/11/09 11:54:31;;;;;;;3.05;0.93;;;;;;;;;;4853755;29;20045;-78
2021/11/09 11:56:57;;;;;;;2.58;1.25;;;;;;;;;;4843629;29;20057;-77
2021/11/09 11:59:22;;;;;;;3.65;1.40;;;;;;;;;;4837328;29;20033;-78
2021/11/09 12:01:49;;;;;;;1.67;1.00;;;;;;;;;;4836920;29;20038;-79
2021/11/09 12:04:42;;;;;;;2.05;1.35;;;;;;;;;;4837105;29;20101;-79
2021/11/09 12:07:17;;;;;;;3.90;0.93;;;;;;;;;;4845160;29;20094;-77
2021/11/09 12:09:46;;;;;;;1.30;0.70;;;;;;;;;;4837235;29;20037;-77
2021/11/09 12:12:11;;;;;;;0.95;0.30;;;;;;;;;;4853302;29;20033;-77
2021/11/09 12:14:57;;;;;;;2.13;0.55;;;;;;;;;;4852571;29;20488;-77
2021/11/09 12:17:40;;;;;;;1.33;0.50;;;;;;;;;;4853467;29;20036;-77
2021/11/09 12:20:09;;;;;;;4.55;0.60;;;;;;;;;;4853034;29;20040;-80
2021/11/09 12:22:49;;;;;;;0.85;0.52;;;;;;;;;;4852602;29;20063;-78
2021/11/09 12:25:32;;;;;;;2.05;0.47;;;;;;;;;;4853325;29;20187;-78
2021/11/09 12:28:12;;;;;;;2.35;0.70;;;;;;;;;;4853187;29;20026;-78
2021/11/09 12:30:51;;;;;;;2.20;0.50;;;;;;;;;;4853139;29;20053;-77
2021/11/09 12:33:28;;;;;;;0.93;0.38;;;;;;;;;;4853281;29;20045;-78
2021/11/09 12:36:02;;;;;;;1.55;0.60;;;;;;;;;;4853249;29;20045;-77
2021/11/09 12:38:36;;;;;;;2.08;0.70;;;;;;;;;;4836866;29;20402;-77
2021/11/09 12:41:17;;;;;;;1.20;0.50;;;;;;;;;;4836497;29;20034;-76
2021/11/09 12:43:53;;;;;;;0.95;0.50;;;;;;;;;;4852873;29;20120;-78
2021/11/09 12:46:22;;;;;;;2.38;0.63;;;;;;;;;;4852991;29;20064;-78
2021/11/09 12:48:55;;;;;;;4.10;0.85;;;;;;;;;;4836618;29;20038;-78
2021/11/09 12:51:33;;;;;;;3.78;0.63;;;;;;;;;;4852740;29;20033;-77
2021/11/09 12:54:16;;;;;;;2.08;0.70;;;;;;;;;;4853141;29;20186;-76
2021/11/09 12:56:58;;;;;;;1.13;0.60;;;;;;;;;;4836304;29;20451;-79
2021/11/09 13:09:47;;;;;;;2.60;0.80;;;;;;;;;;4852866;29;20037;-78
2021/11/09 13:12:29;;;;;;;1.90;0.55;;;;;;;;;;4852457;29;20045;-77
2021/11/09 13:14:59;;;;;;;1.10;0.63;;;;;;;;;;4852497;29;20041;-78
2021/11/09 13:18:03;;;;;;;4.45;0.95;;;;;;;;;;4852670;29;20465;-77
2021/11/09 13:23:09;;;;;;;1.85;0.73;;;;;;;;;;4852450;29;20101;-76
2021/11/09 13:25:38;;;;;;;0.65;0.47;;;;;;;;;;4835545;29;20038;-76
2021/11/09 13:28:13;;;;;;;1.52;0.60;;;;;;;;;;4852026;29;20030;-78
2021/11/09 13:30:59;;;;;;;2.45;0.68;;;;;;;;;;4852142;29;20066;-77
2021/11/09 13:33:26;;;;;;;3.60;0.70;;;;;;;;;;4851729;29;20050;-77
2021/11/09 13:35:54;;;;;;;2.85;1.08;;;;;;;;;;4852486;29;20053;-77
2021/11/09 13:38:23;;;;;;;3.63;0.90;;;;;;;;;;4835659;29;20497;-77
2021/11/09 13:40:51;;;;;;;2.45;0.57;;;;;;;;;;4835454;29;20041;-76
2021/11/09 13:43:21;;;;;;;1.50;0.70;;;;;;;;;;4835345;29;20057;-76
2021/11/09 13:45:46;;;;;;;3.92;0.80;;;;;;;;;;4835722;29;20042;-78
2021/11/09 13:48:18;;;;;;;2.58;0.80;;;;;;;;;;4835433;29;20071;-77
2021/11/09 13:50:47;;;;;;;4.35;1.13;;;;;;;;;;4851968;29;20044;-77
2021/11/09 13:53:20;;;;;;;2.50;0.95;;;;;;;;;;4835770;29;20034;-78
2021/11/09 13:55:46;;;;;;;2.22;0.82;;;;;;;;;;4835546;29;20120;-78
2021/11/09 13:58:12;;;;;;;5.70;1.65;;;;;;;;;;4835172;29;20042;-79
2021/11/09 14:00:44;;;;;;;3.38;1.00;;;;;;;;;;4834934;29;20122;-79
2021/11/09 14:16:47;;;;;;;4.32;0.82;;;;;;;;;;4851723;29;20045;-80
2021/11/09 14:19:14;;;;;;;3.35;0.85;;;;;;;;;;4851814;29;20036;-79
2021/11/09 14:21:43;;;;;;;1.77;0.93;;;;;;;;;;4835039;29;20026;-81
2021/11/09 14:24:20;;;;;;;5.70;1.13;;;;;;;;;;4852061;29;20034;-80
2021/11/09 14:27:13;;;;;;;2.35;1.05;;;;;;;;;;4851303;29;20487;-79
2021/11/09 14:29:52;;;;;;;3.00;1.05;;;;;;;;;;4848369;29;20085;-79
2021/11/09 14:32:21;;;;;;;4.68;1.20;;;;;;;;;;4834269;29;20045;-79
2021/11/09 14:35:06;;;;;;;5.82;1.02;;;;;;;;;;4835023;29;20045;-79
2021/11/09 14:37:41;;;;;;;4.85;1.63;;;;;;;;;;4852778;29;20038;-82
2021/11/09 14:40:11;;;;;;;3.53;1.00;;;;;;;;;;4854380;29;20559;-81
2021/11/09 14:48:08;;;;;;;4.07;1.58;;;;;;;;;;4854585;29;20042;-79
2021/11/09 14:50:48;;;;;;;3.80;1.20;;;;;;;;;;4855167;29;20038;-80
2021/11/09 14:53:37;;;;;;;4.00;1.40;;;;;;;;;;4838060;29;20041;-80
2021/11/09 14:56:08;;;;;;;3.78;1.33;;;;;;;;;;4838216;29;20034;-79
2021/11/09 14:58:38;;;;;;;1.85;0.90;;;;;;;;;;4854762;29;20029;-78
2021/11/09 15:01:47;;;;;;;4.60;1.17;;;;;;;;;;4854548;29;20030;-80
2021/11/09 15:04:20;;;;;;;4.15;1.40;;;;;;;;;;4779611;30;20562;-79
2021/11/09 15:12:11;;;;;;;2.85;1.15;;;;;;;;;;4854175;29;20053;-79
2021/11/09 15:33:22;;;;;;;5.78;1.40;;;;;;;;;;4854378;29;20040;-78
2021/11/09 15:36:11;;;;;;;5.38;1.27;;;;;;;;;;4837425;29;20064;-80
2021/11/09 15:38:37;;;;;;;4.78;1.27;;;;;;;;;;4837394;29;20026;-78
2021/11/09 15:41:02;;;;;;;6.78;1.65;;;;;;;;;;4854090;29;20142;-79
2021/11/09 15:43:29;;;;;;;3.13;1.10;;;;;;;;;;4853925;29;20155;-78
2021/11/09 15:45:55;;;;;;;4.18;1.23;;;;;;;;;;4854119;29;20038;-80
2021/11/09 15:48:20;;;;;;;3.80;1.60;;;;;;;;;;4853755;29;20042;-79
2021/11/09 15:50:46;;;;;;;3.80;1.30;;;;;;;;;;4837075;29;20034;-80
2021/11/09 15:53:13;;;;;;;4.35;1.80;;;;;;;;;;4837061;29;20093;-79
2021/11/09 15:55:39;;;;;;;4.85;1.58;;;;;;;;;;4853849;29;20063;-80
2021/11/09 15:58:04;;;;;;;6.35;2.13;;;;;;;;;;4853793;29;20034;-80
2021/11/09 16:00:30;;;;;;;6.22;1.90;;;;;;;;;;4837173;29;20050;-78
2021/11/09 16:02:55;;;;;;;4.82;1.70;;;;;;;;;;4853759;29;20067;-78
2021/11/09 16:05:21;;;;;;;5.28;1.77;;;;;;;;;;4837281;29;20066;-80
2021/11/09 16:07:49;;;;;;;8.27;1.90;;;;;;;;;;4853943;29;20049;-79
2021/11/09 16:10:17;;;;;;;4.15;1.70;;;;;;;;;;4853459;29;20042;-80
2021/11/09 16:12:42;;;;;;;8.32;2.53;;;;;;;;;;4853197;29;20472;-80
2021/11/09 16:15:09;;;;;;;8.50;2.20;;;;;;;;;;4853193;29;20033;-80
2021/11/09 16:17:37;;;;;;;3.13;1.70;;;;;;;;;;4852290;29;20224;-78
2021/11/09 16:20:04;;;;;;;7.70;2.67;;;;;;;;;;4852504;29;20046;-78
2021/11/09 16:22:33;;;;;;;7.15;1.80;;;;;;;;;;4836618;29;20248;-77
2021/11/09 16:25:00;;;;;;;6.10;2.60;;;;;;;;;;4853389;29;20040;-78
2021/11/09 16:27:26;;;;;;;7.30;2.70;;;;;;;;;;4836305;29;20112;-81
2021/11/09 16:29:55;;;;;;;7.80;2.50;;;;;;;;;;4852620;29;20061;-78
2021/11/09 16:32:25;;;;;;;6.68;2.67;;;;;;;;;;4853051;29;20098;-80
2021/11/09 16:34:55;;;;;;;7.15;2.65;;;;;;;;;;4852994;29;20037;-78
2021/11/09 16:37:21;;;;;;;3.20;1.52;;;;;;;;;;4836420;29;20096;-79
2021/11/09 16:39:50;;;;;;;7.10;2.30;;;;;;;;;;4852736;29;20345;-79
2021/11/09 16:42:16;;;;;;;7.95;2.85;;;;;;;;;;4835955;29;20356;-78
2021/11/09 16:44:42;;;;;;;9.20;2.85;;;;;;;;;;4835867;29;20034;-78
2021/11/09 16:47:09;;;;;;;9.50;3.50;;;;;;;;;;4853041;29;20055;-76
2021/11/09 16:52:09;;;;;;;9.85;3.20;;;;;;;;;;4852815;29;20388;-78
2021/11/09 16:54:42;;;;;;;7.63;3.15;;;;;;;;;;4852976;29;20038;-77
2021/11/09 16:57:40;;;;;;;9.55;4.25;;;;;;;;;;4852773;29;20029;-79
2021/11/09 18:20:31;;;;;;;7.53;3.10;;;;;;;;;;4855519;29;20575;-76
2021/11/09 18:22:59;;;;;;;6.80;2.70;;;;;;;;;;4838715;29;20038;-76
2021/11/09 18:25:28;;;;;;;8.95;2.97;;;;;;;;;;4855327;29;20037;-78
2021/11/09 18:27:55;;;;;;;10.05;3.55;;;;;;;;;;4855465;29;20053;-76
2021/11/09 18:30:27;;;;;;;9.82;3.20;;;;;;;;;;4855110;29;20073;-76
2021/11/09 18:32:53;;;;;;;10.32;4.05;;;;;;;;;;4854338;29;20088;-78
2021/11/09 18:35:21;;;;;;;9.40;3.20;;;;;;;;;;4855222;29;20058;-76
2021/11/09 18:37:49;;;;;;;10.32;3.33;;;;;;;;;;4855199;29;20062;-78
2021/11/09 18:40:16;;;;;;;10.05;3.88;;;;;;;;;;4854917;29;20501;-76
2021/11/09 18:42:43;;;;;;;12.68;4.57;;;;;;;;;;4854800;29;20033;-77
2021/11/09 18:45:12;;;;;;;9.27;3.95;;;;;;;;;;4855167;29;20038;-77
2021/11/09 18:47:37;;;;;;;5.35;2.42;;;;;;;;;;4854806;29;20065;-77
2021/11/09 18:50:04;;;;;;;9.95;4.20;;;;;;;;;;4854732;29;20421;-77
2021/11/09 18:52:29;;;;;;;12.38;4.22;;;;;;;;;;4854617;29;20073;-76
2021/11/09 18:54:55;;;;;;;10.02;3.80;;;;;;;;;;4854936;29;20038;-77
2021/11/09 18:57:22;;;;;;;6.70;3.83;;;;;;;;;;4854822;29;20038;-76
2021/11/09 18:59:48;;;;;;;7.93;3.50;;;;;;;;;;4854968;29;20036;-78
2021/11/09 19:02:14;;;;;;;12.18;4.57;;;;;;;;;;4837992;29;20038;-78
2021/11/09 19:04:39;;;;;;;7.15;3.20;;;;;;;;;;4854972;29;20059;-78
2021/11/09 19:07:06;;;;;;;6.53;3.63;;;;;;;;;;4854655;29;20038;-77
2021/11/09 19:09:32;;;;;;;8.77;4.32;;;;;;;;;;4854765;29;20124;-78
2021/11/09 19:11:59;;;;;;;12.85;4.85;;;;;;;;;;4855117;29;20042;-80
2021/11/09 19:14:37;;;;;;;23.02;16.17;;;;;;;;;;4855150;29;20038;-80
2021/11/09 19:17:04;;;;;;;20.40;13.38;;;;;;;;;;4855713;29;20037;-77
2021/11/09 19:19:30;;;;;;;11.57;8.63;;;;;;;;;;4839172;29;20034;-78
2021/11/09 19:21:55;;;;;;;14.57;5.18;;;;;;;;;;4839462;29;20114;-76
2021/11/09 19:24:21;;;;;;;6.40;3.72;;;;;;;;;;4855158;29;20041;-76
2021/11/09 19:26:47;;;;;;;12.07;4.45;;;;;;;;;;4838728;29;20026;-78
2021/11/09 19:29:14;;;;;;;11.77;3.30;;;;;;;;;;4839158;29;20082;-76
2021/11/09 19:31:40;;;;;;;11.07;3.50;;;;;;;;;;4839307;29;20073;-77